createdAt,value
2017-09-27T00:00:41.975Z,96.30
2017-09-27T00:03:10.241Z,96.40
2017-09-27T00:05:39.264Z,96.40
2017-09-27T00:08:07.533Z,96.40
2017-09-27T00:10:35.800Z,96.50
2017-09-27T00:13:04.058Z,96.80
2017-09-27T00:15:33.088Z,96.70
2017-09-27T00:18:01.342Z,96.60
2017-09-27T00:20:29.617Z,96.60
2017-09-27T00:22:57.872Z,96.60
2017-09-27T00:25:26.916Z,96.80
2017-09-27T00:27:55.178Z,96.80
2017-09-27T00:30:23.449Z,97.00
2017-09-27T00:32:51.730Z,96.90
2017-09-27T00:35:19.994Z,96.90
2017-09-27T00:37:48.252Z,96.90
2017-09-27T00:40:17.289Z,97.20
2017-09-27T00:42:45.548Z,97.50
2017-09-27T00:45:13.819Z,97.30
2017-09-27T00:47:42.083Z,97.40
2017-09-27T00:50:10.343Z,97.40
2017-09-27T00:52:39.375Z,97.70
2017-09-27T00:55:07.648Z,97.70
2017-09-27T00:57:35.912Z,97.60
2017-09-27T01:00:04.178Z,97.60
2017-09-27T01:02:32.443Z,97.60
2017-09-27T01:05:01.480Z,97.60
2017-09-27T01:07:30.608Z,97.50
2017-09-27T01:09:58.880Z,97.60
2017-09-27T01:12:27.135Z,97.60
2017-09-27T01:14:55.394Z,97.60
2017-09-27T01:17:23.660Z,97.60
2017-09-27T01:19:51.924Z,97.60
2017-09-27T01:22:20.184Z,97.60
2017-09-27T01:24:49.222Z,97.70
2017-09-27T01:27:17.481Z,97.70
2017-09-27T01:29:45.750Z,97.70
2017-09-27T01:32:14.005Z,97.60
2017-09-27T01:34:43.038Z,97.70
2017-09-27T01:37:11.292Z,97.70
2017-09-27T01:39:39.558Z,97.70
2017-09-27T01:42:07.820Z,97.70
2017-09-27T01:44:36.850Z,97.70
2017-09-27T01:47:05.122Z,97.70
2017-09-27T01:49:33.383Z,97.70
2017-09-27T01:52:01.638Z,97.60
2017-09-27T01:54:30.667Z,97.70
2017-09-27T01:56:58.923Z,97.50
2017-09-27T01:59:27.190Z,97.60
2017-09-27T02:01:56.225Z,97.80
2017-09-27T02:04:24.492Z,97.50
2017-09-27T02:06:52.748Z,97.40
2017-09-27T02:09:21.020Z,97.40
2017-09-27T02:11:50.042Z,97.50
2017-09-27T02:14:18.319Z,97.50
2017-09-27T02:16:46.567Z,97.40
2017-09-27T02:19:14.836Z,97.40
2017-09-27T02:21:43.858Z,97.20
2017-09-27T02:24:12.139Z,97.20
2017-09-27T02:26:40.395Z,97.20
2017-09-27T02:29:08.668Z,97.20
2017-09-27T02:31:36.919Z,97.20
2017-09-27T02:34:05.952Z,97.50
2017-09-27T02:36:34.213Z,97.40
2017-09-27T02:39:02.470Z,97.40
2017-09-27T02:41:31.495Z,97.50
2017-09-27T02:43:59.769Z,97.50
2017-09-27T02:46:28.030Z,97.50
2017-09-27T02:48:56.287Z,97.40
2017-09-27T02:51:25.323Z,97.50
2017-09-27T02:53:53.582Z,97.40
2017-09-27T02:56:21.851Z,97.40
2017-09-27T02:58:50.116Z,97.50
2017-09-27T03:01:19.146Z,97.60
2017-09-27T03:03:47.412Z,97.60
2017-09-27T03:06:15.676Z,97.70
2017-09-27T03:08:43.940Z,97.70
2017-09-27T03:11:12.205Z,97.50
2017-09-27T03:13:41.231Z,97.60
2017-09-27T03:16:09.491Z,97.60
2017-09-27T03:18:37.756Z,97.50
2017-09-27T03:21:06.787Z,97.40
2017-09-27T03:23:35.047Z,97.40
2017-09-27T03:26:03.306Z,97.50
2017-09-27T03:28:31.561Z,97.60
2017-09-27T03:31:00.613Z,97.70
2017-09-27T03:33:28.872Z,97.70
2017-09-27T03:35:57.137Z,98.00
2017-09-27T03:38:25.387Z,97.90
2017-09-27T03:40:54.423Z,97.80
2017-09-27T03:43:22.692Z,97.80
2017-09-27T03:45:50.962Z,97.80
2017-09-27T03:48:19.215Z,97.80
2017-09-27T03:50:48.251Z,97.80
2017-09-27T03:53:16.512Z,97.80
2017-09-27T03:55:44.775Z,97.70
2017-09-27T03:58:13.032Z,97.60
2017-09-27T04:00:42.063Z,97.70
2017-09-27T04:03:10.436Z,97.70
2017-09-27T04:05:38.700Z,97.70
2017-09-27T04:08:06.954Z,97.80
2017-09-27T04:10:35.984Z,97.70
2017-09-27T04:13:04.242Z,97.70
2017-09-27T04:15:32.504Z,97.60
2017-09-27T04:18:00.769Z,97.60
2017-09-27T04:20:29.802Z,97.50
2017-09-27T04:22:58.065Z,97.50
2017-09-27T04:25:26.327Z,97.50
2017-09-27T04:27:54.583Z,97.40
2017-09-27T04:30:23.616Z,97.60
2017-09-27T04:32:51.866Z,97.60
2017-09-27T04:35:20.903Z,97.70
2017-09-27T04:37:49.166Z,97.70
2017-09-27T04:40:17.427Z,97.70
2017-09-27T04:42:45.687Z,97.70
2017-09-27T04:45:14.715Z,97.80
2017-09-27T04:47:42.968Z,97.80
2017-09-27T04:50:11.227Z,97.90
2017-09-27T04:52:40.252Z,97.70
2017-09-27T04:55:08.520Z,97.70
2017-09-27T04:57:36.784Z,97.70
2017-09-27T05:00:05.047Z,97.70
2017-09-27T05:02:34.077Z,97.80
2017-09-27T05:05:02.336Z,97.80
2017-09-27T05:07:30.590Z,97.90
2017-09-27T05:09:59.624Z,97.80
2017-09-27T05:12:27.891Z,97.80
2017-09-27T05:14:56.155Z,97.70
2017-09-27T05:17:24.407Z,97.60
2017-09-27T05:19:53.441Z,97.60
2017-09-27T05:22:21.702Z,97.60
2017-09-27T05:24:49.972Z,97.70
2017-09-27T05:27:18.227Z,97.60
2017-09-27T05:29:47.252Z,97.60
2017-09-27T05:32:15.530Z,97.60
2017-09-27T05:34:43.786Z,97.70
2017-09-27T05:37:12.060Z,97.70
2017-09-27T05:39:40.315Z,97.80
2017-09-27T05:42:08.584Z,97.90
2017-09-27T05:44:36.839Z,97.90
2017-09-27T05:47:05.108Z,97.90
2017-09-27T05:49:33.373Z,98.00
2017-09-27T05:52:01.635Z,97.60
2017-09-27T05:54:29.904Z,97.50
2017-09-27T05:56:58.171Z,97.50
2017-09-27T05:59:26.422Z,97.50
2017-09-27T06:01:55.462Z,97.60
2017-09-27T06:04:23.711Z,97.50
2017-09-27T06:06:51.980Z,97.30
2017-09-27T06:09:21.004Z,97.20
2017-09-27T06:11:49.268Z,97.20
2017-09-27T06:14:17.531Z,97.50
2017-09-27T06:16:45.790Z,97.00
2017-09-27T06:19:14.818Z,96.30
2017-09-27T06:21:43.082Z,96.30
2017-09-27T06:24:11.347Z,96.30
2017-09-27T06:26:39.621Z,96.30
2017-09-27T06:29:08.644Z,96.50
2017-09-27T06:31:36.909Z,96.50
2017-09-27T06:34:05.166Z,96.60
2017-09-27T06:36:34.199Z,96.30
2017-09-27T06:39:02.462Z,96.30
2017-09-27T06:41:30.728Z,96.20
2017-09-27T06:43:58.991Z,96.80
2017-09-27T06:46:27.253Z,96.80
2017-09-27T06:48:56.279Z,96.70
2017-09-27T06:51:24.543Z,96.70
2017-09-27T06:53:52.796Z,96.60
2017-09-27T06:56:21.836Z,96.60
2017-09-27T06:58:50.098Z,96.80
2017-09-27T07:01:18.363Z,96.60
2017-09-27T07:03:46.619Z,97.10
2017-09-27T07:06:15.648Z,97.10
2017-09-27T07:08:43.908Z,97.40
2017-09-27T07:11:12.179Z,97.20
2017-09-27T07:13:40.432Z,97.00
2017-09-27T07:16:09.472Z,97.20
2017-09-27T07:18:37.739Z,97.20
2017-09-27T07:21:06.003Z,97.00
2017-09-27T07:23:34.269Z,97.20
2017-09-27T07:26:03.295Z,97.20
2017-09-27T07:28:31.668Z,97.20
2017-09-27T07:30:59.936Z,96.90
2017-09-27T07:33:28.196Z,96.90
2017-09-27T07:35:56.464Z,96.70
2017-09-27T07:38:25.482Z,96.50
2017-09-27T07:40:53.861Z,96.50
2017-09-27T07:43:22.109Z,96.60
2017-09-27T07:45:51.152Z,95.90
2017-09-27T07:48:19.412Z,95.90
2017-09-27T07:50:47.673Z,95.70
2017-09-27T07:53:15.926Z,95.40
2017-09-27T07:55:44.963Z,94.90
2017-09-27T07:58:13.215Z,94.90
2017-09-27T08:00:41.474Z,94.50
2017-09-27T08:03:10.493Z,93.80
2017-09-27T08:05:38.767Z,93.80
2017-09-27T08:08:07.115Z,93.50
2017-09-27T08:10:35.368Z,93.80
2017-09-27T08:13:03.624Z,93.50
2017-09-27T08:15:32.644Z,93.40
2017-09-27T08:18:00.910Z,93.40
2017-09-27T08:20:29.159Z,92.10
2017-09-27T08:22:57.423Z,92.20
2017-09-27T08:25:25.680Z,92.60
2017-09-27T08:27:53.949Z,92.20
2017-09-27T08:30:22.194Z,91.60
2017-09-27T08:32:50.460Z,92.20
2017-09-27T08:35:19.484Z,91.90
2017-09-27T08:37:47.743Z,91.90
2017-09-27T08:40:16.000Z,91.80
2017-09-27T08:42:45.024Z,91.20
2017-09-27T08:45:13.275Z,91.40
2017-09-27T08:47:42.299Z,91.10
2017-09-27T08:50:10.555Z,91.10
2017-09-27T08:52:38.832Z,90.60
2017-09-27T08:55:07.087Z,90.30
2017-09-27T08:57:36.118Z,89.70
2017-09-27T09:00:04.366Z,89.00
2017-09-27T09:02:32.630Z,90.00
2017-09-27T09:05:01.661Z,88.90
2017-09-27T09:07:29.924Z,88.80
2017-09-27T09:09:58.178Z,88.80
2017-09-27T09:12:27.215Z,89.50
2017-09-27T09:14:55.463Z,89.50
2017-09-27T09:17:23.733Z,90.30
2017-09-27T09:19:51.986Z,89.60
2017-09-27T09:22:21.016Z,89.00
2017-09-27T09:24:49.267Z,89.00
2017-09-27T09:27:18.299Z,88.00
2017-09-27T09:29:46.550Z,88.00
2017-09-27T09:32:14.828Z,88.00
2017-09-27T09:34:43.085Z,86.30
2017-09-27T09:37:12.110Z,84.90
2017-09-27T09:39:40.360Z,84.80
2017-09-27T09:42:08.623Z,86.00
2017-09-27T09:44:37.647Z,84.90
2017-09-27T09:47:05.911Z,85.00
2017-09-27T09:49:34.162Z,84.70
2017-09-27T09:52:03.193Z,85.00
2017-09-27T09:54:31.443Z,85.00
2017-09-27T09:57:00.472Z,85.10
2017-09-27T09:59:28.723Z,85.10
2017-09-27T10:01:56.983Z,85.20
2017-09-27T10:04:26.003Z,84.70
2017-09-27T10:06:54.262Z,84.60
2017-09-27T10:09:22.523Z,84.30
2017-09-27T10:11:51.608Z,83.10
2017-09-27T10:14:19.859Z,83.10
2017-09-27T10:16:48.119Z,81.80
2017-09-27T10:19:16.371Z,82.70
2017-09-27T10:21:44.638Z,83.50
2017-09-27T10:24:12.903Z,83.80
2017-09-27T10:26:41.923Z,81.60
2017-09-27T10:29:10.184Z,81.60
2017-09-27T10:31:38.446Z,79.80
2017-09-27T10:34:07.470Z,79.90
2017-09-27T10:36:35.734Z,79.80
2017-09-27T10:39:04.000Z,79.00
2017-09-27T10:41:32.259Z,79.50
2017-09-27T10:44:01.388Z,79.20
2017-09-27T10:46:29.655Z,79.10
2017-09-27T10:48:57.907Z,78.90
2017-09-27T10:51:26.935Z,79.10
2017-09-27T10:53:55.192Z,78.90
2017-09-27T10:56:24.220Z,75.50
2017-09-27T10:58:52.577Z,75.50
2017-09-27T11:01:20.835Z,74.80
2017-09-27T11:03:49.099Z,74.70
2017-09-27T11:06:18.119Z,72.80
2017-09-27T11:08:46.388Z,72.70
2017-09-27T11:11:14.640Z,71.10
2017-09-27T11:13:43.672Z,69.90
2017-09-27T11:16:11.922Z,69.90
2017-09-27T11:18:40.955Z,67.70
2017-09-27T11:21:09.208Z,67.60
2017-09-27T11:23:37.479Z,68.30
2017-09-27T11:26:05.741Z,67.40
2017-09-27T11:28:34.772Z,68.10
2017-09-27T11:31:03.022Z,68.50
2017-09-27T11:33:31.292Z,66.00
2017-09-27T11:35:59.552Z,63.90
2017-09-27T11:38:28.580Z,63.80
2017-09-27T11:40:56.836Z,63.80
2017-09-27T11:43:25.095Z,63.00
2017-09-27T11:45:54.117Z,66.10
2017-09-27T11:48:22.376Z,66.00
2017-09-27T11:50:50.639Z,68.60
2017-09-27T11:53:19.669Z,71.40
2017-09-27T11:55:47.922Z,71.40
2017-09-27T11:58:16.186Z,71.50
2017-09-27T12:00:45.210Z,71.40
2017-09-27T12:03:13.478Z,71.50
2017-09-27T12:05:41.736Z,72.50
2017-09-27T12:08:10.766Z,70.20
2017-09-27T12:10:39.031Z,70.10
2017-09-27T12:13:07.299Z,67.10
2017-09-27T12:15:35.548Z,66.80
2017-09-27T12:18:04.586Z,62.50
2017-09-27T12:20:32.840Z,62.30
2017-09-27T12:23:01.107Z,66.10
2017-09-27T12:25:29.371Z,62.70
2017-09-27T12:27:58.395Z,60.90
2017-09-27T12:30:26.655Z,60.90
2017-09-27T12:32:54.919Z,63.40
2017-09-27T12:35:23.939Z,66.20
2017-09-27T12:37:52.208Z,66.20
2017-09-27T12:40:20.464Z,64.80
2017-09-27T12:42:49.493Z,60.00
2017-09-27T12:45:17.742Z,59.70
2017-09-27T12:47:46.008Z,59.20
2017-09-27T12:50:15.032Z,58.20
2017-09-27T12:52:43.305Z,58.10
2017-09-27T12:55:11.554Z,59.90
2017-09-27T12:57:40.592Z,62.60
2017-09-27T13:00:08.841Z,62.50
2017-09-27T13:02:37.104Z,66.50
2017-09-27T13:05:06.122Z,65.10
2017-09-27T13:07:34.389Z,65.20
2017-09-27T13:10:02.650Z,62.60
2017-09-27T13:12:30.919Z,62.90
2017-09-27T13:14:59.936Z,65.60
2017-09-27T13:17:28.199Z,65.50
2017-09-27T13:19:56.456Z,65.90
2017-09-27T13:22:25.480Z,65.20
2017-09-27T13:24:53.738Z,65.20
2017-09-27T13:27:22.767Z,65.60
2017-09-27T13:29:51.031Z,65.40
2017-09-27T13:32:19.298Z,61.10
2017-09-27T13:34:47.547Z,62.00
2017-09-27T13:37:16.574Z,62.00
2017-09-27T13:39:44.838Z,62.70
2017-09-27T13:42:13.104Z,64.70
2017-09-27T13:44:41.355Z,63.80
2017-09-27T13:47:09.621Z,63.40
2017-09-27T13:49:37.874Z,63.50
2017-09-27T13:52:06.138Z,65.40
2017-09-27T13:54:34.396Z,67.10
2017-09-27T13:57:02.659Z,65.90
2017-09-27T13:59:30.921Z,67.20
2017-09-27T14:01:59.949Z,66.60
2017-09-27T14:04:28.204Z,66.60
2017-09-27T14:06:56.456Z,64.20
2017-09-27T14:09:25.485Z,62.80
2017-09-27T14:11:53.735Z,62.80
2017-09-27T14:14:22.773Z,56.90
2017-09-27T14:16:51.018Z,56.80
2017-09-27T14:19:19.283Z,54.40
2017-09-27T14:21:48.296Z,53.60
2017-09-27T14:24:16.563Z,53.60
2017-09-27T14:26:44.823Z,54.60
2017-09-27T14:29:13.848Z,52.80
2017-09-27T14:31:42.100Z,52.70
2017-09-27T14:34:10.359Z,52.70
2017-09-27T14:36:39.375Z,52.20
2017-09-27T14:39:07.635Z,52.10
2017-09-27T14:41:36.663Z,51.40
2017-09-27T14:44:04.918Z,51.40
2017-09-27T14:46:33.183Z,52.80
2017-09-27T14:49:02.210Z,53.00
2017-09-27T14:51:30.468Z,53.00
2017-09-27T14:53:58.729Z,54.10
2017-09-27T14:56:27.751Z,53.80
2017-09-27T14:58:56.011Z,53.70
2017-09-27T15:01:24.275Z,53.60
2017-09-27T15:03:53.307Z,53.00
2017-09-27T15:06:21.565Z,53.00
2017-09-27T15:08:49.845Z,53.00
2017-09-27T15:11:18.091Z,56.60
2017-09-27T15:13:47.132Z,60.30
2017-09-27T15:16:15.390Z,60.10
2017-09-27T15:18:43.652Z,56.60
2017-09-27T15:21:11.908Z,58.30
2017-09-27T15:23:40.939Z,63.00
2017-09-27T15:26:09.208Z,62.90
2017-09-27T15:28:37.463Z,61.70
2017-09-27T15:31:05.730Z,59.60
2017-09-27T15:33:34.751Z,60.00
2017-09-27T15:36:03.036Z,59.90
2017-09-27T15:38:31.297Z,61.30
2017-09-27T15:40:59.554Z,57.10
2017-09-27T15:43:28.658Z,60.60
2017-09-27T15:45:56.935Z,60.60
2017-09-27T15:48:25.196Z,57.50
2017-09-27T15:50:54.217Z,59.30
2017-09-27T15:53:22.487Z,59.30
2017-09-27T15:55:50.731Z,59.10
2017-09-27T15:58:19.760Z,60.40
2017-09-27T16:00:48.016Z,60.30
2017-09-27T16:03:16.275Z,62.60
2017-09-27T16:05:45.301Z,66.00
2017-09-27T16:08:13.566Z,66.10
2017-09-27T16:10:41.811Z,67.50
2017-09-27T16:13:10.948Z,71.70
2017-09-27T16:15:39.213Z,71.40
2017-09-27T16:18:08.719Z,72.00
2017-09-27T16:20:37.123Z,73.80
2017-09-27T16:23:05.387Z,74.80
2017-09-27T16:25:33.647Z,74.50
2017-09-27T16:28:01.920Z,76.60
2017-09-27T16:30:30.175Z,77.40
2017-09-27T16:32:58.495Z,79.10
2017-09-27T16:35:26.722Z,80.70
2017-09-27T16:37:55.020Z,81.40
2017-09-27T16:40:23.274Z,82.70
2017-09-27T16:42:51.543Z,83.60
2017-09-27T16:45:20.576Z,85.60
2017-09-27T16:47:48.835Z,85.60
2017-09-27T16:50:17.093Z,85.50
2017-09-27T16:52:46.118Z,85.30
2017-09-27T16:55:14.372Z,85.30
2017-09-27T16:57:42.644Z,86.20
2017-09-27T17:00:10.899Z,86.40
2017-09-27T17:02:39.925Z,86.60
2017-09-27T17:05:08.188Z,86.60
2017-09-27T17:07:36.444Z,87.00
2017-09-27T17:10:05.477Z,88.30
2017-09-27T17:12:33.737Z,88.20
2017-09-27T17:15:02.000Z,88.70
2017-09-27T17:17:31.019Z,89.20
2017-09-27T17:19:59.292Z,89.20
2017-09-27T17:22:27.548Z,89.20
2017-09-27T17:24:55.818Z,89.20
2017-09-27T17:27:24.837Z,89.50
2017-09-27T17:29:53.094Z,89.50
2017-09-27T17:32:21.355Z,90.00
2017-09-27T17:34:50.396Z,90.00
2017-09-27T17:37:18.647Z,90.00
2017-09-27T17:39:46.926Z,90.00
2017-09-27T17:42:15.176Z,90.10
2017-09-27T17:44:44.202Z,90.30
2017-09-27T17:47:12.458Z,90.30
2017-09-27T17:49:40.737Z,90.30
2017-09-27T17:52:08.984Z,90.70
2017-09-27T17:54:38.021Z,90.70
2017-09-27T17:57:06.279Z,90.50
2017-09-27T17:59:35.305Z,90.90
2017-09-27T18:02:03.567Z,90.90
2017-09-27T18:04:37.315Z,91.00
2017-09-27T18:07:11.783Z,91.20
2017-09-27T18:12:44.135Z,91.20
2017-09-27T18:15:17.780Z,91.30
2017-09-27T18:17:46.367Z,91.60
2017-09-27T18:20:14.630Z,91.90
2017-09-27T18:22:48.852Z,92.10
2017-09-27T18:25:17.790Z,92.50
2017-09-27T18:27:46.852Z,92.50
2017-09-27T18:30:15.119Z,92.50
2017-09-27T18:32:43.380Z,92.50
2017-09-27T18:35:11.647Z,92.50
2017-09-27T18:37:39.903Z,92.50
2017-09-27T18:40:08.944Z,92.80
2017-09-27T18:42:37.199Z,92.50
2017-09-27T18:45:05.471Z,92.50
2017-09-27T18:47:33.742Z,92.50
2017-09-27T18:50:02.763Z,92.30
2017-09-27T18:52:31.015Z,92.30
2017-09-27T18:54:59.288Z,92.40
2017-09-27T18:57:28.344Z,92.50
2017-09-27T18:59:56.592Z,92.50
2017-09-27T19:02:24.862Z,92.50
2017-09-27T19:04:53.128Z,92.70
2017-09-27T19:07:21.403Z,92.80
2017-09-27T19:09:49.682Z,92.90
2017-09-27T19:12:17.950Z,93.10
2017-09-27T19:14:46.217Z,93.30
2017-09-27T19:17:14.543Z,93.40
2017-09-27T19:19:42.804Z,93.30
2017-09-27T19:22:11.063Z,93.20
2017-09-27T19:24:39.332Z,93.60
2017-09-27T19:27:07.591Z,93.60
2017-09-27T19:29:35.884Z,93.80
2017-09-27T19:32:04.147Z,93.80
2017-09-27T19:34:32.427Z,93.80
2017-09-27T19:37:00.683Z,93.80
2017-09-27T19:39:29.717Z,94.00
2017-09-27T19:41:57.974Z,93.90
2017-09-27T19:44:26.239Z,94.10
2017-09-27T19:46:54.499Z,94.00
2017-09-27T19:49:23.563Z,94.10
2017-09-27T19:51:51.828Z,94.10
2017-09-27T19:54:20.100Z,94.20
2017-09-27T19:56:48.360Z,94.20
2017-09-27T19:59:16.621Z,94.00
2017-09-27T20:01:44.884Z,94.00
2017-09-27T20:04:13.933Z,94.30
2017-09-27T20:06:42.191Z,94.30
2017-09-27T20:09:10.460Z,94.30
2017-09-27T20:11:38.718Z,94.30
2017-09-27T20:14:07.011Z,94.30
2017-09-27T20:16:35.266Z,94.40
2017-09-27T20:19:03.528Z,94.40
2017-09-27T20:21:32.980Z,94.80
2017-09-27T20:24:02.008Z,94.80
2017-09-27T20:26:30.275Z,94.80
2017-09-27T20:28:58.534Z,95.10
2017-09-27T20:31:26.822Z,95.20
2017-09-27T20:33:55.087Z,95.50
2017-09-27T20:36:23.350Z,95.80
2017-09-27T20:38:52.379Z,95.80
2017-09-27T20:41:20.666Z,95.70
2017-09-27T20:43:48.944Z,96.10
2017-09-27T20:46:17.222Z,96.50
2017-09-27T20:48:44.767Z,96.80
2017-09-27T20:51:13.061Z,96.20
2017-09-27T20:53:41.438Z,96.00
2017-09-27T20:56:09.692Z,96.40
2017-09-27T20:58:37.959Z,96.80
2017-09-27T21:01:06.230Z,96.60
2017-09-27T21:03:37.689Z,96.80
2017-09-27T21:06:06.051Z,97.00
2017-09-27T21:08:34.320Z,97.00
2017-09-27T21:11:03.342Z,96.70
2017-09-27T21:13:31.610Z,96.60
2017-09-27T21:16:00.098Z,96.60
2017-09-27T21:18:28.791Z,96.80
2017-09-27T21:20:57.056Z,96.50
2017-09-27T21:23:25.322Z,96.50
2017-09-27T21:25:53.599Z,96.80
2017-09-27T21:28:21.864Z,96.60
2017-09-27T21:30:50.904Z,96.90
2017-09-27T21:33:19.167Z,96.90
2017-09-27T21:35:47.430Z,96.90
2017-09-27T21:38:15.695Z,96.90
2017-09-27T21:40:43.963Z,96.90
2017-09-27T21:43:12.234Z,96.90
2017-09-27T21:45:41.280Z,97.20
2017-09-27T21:48:09.543Z,96.90
2017-09-27T21:50:37.816Z,96.80
2017-09-27T21:53:06.073Z,96.90
2017-09-27T21:55:34.328Z,96.80
2017-09-27T21:58:02.594Z,96.90
2017-09-27T22:00:31.622Z,97.20
2017-09-27T22:02:59.879Z,97.10
2017-09-27T22:05:28.136Z,97.20
2017-09-27T22:07:57.260Z,97.50
2017-09-27T22:10:25.713Z,97.50
2017-09-27T22:12:54.743Z,97.60
2017-09-27T22:15:22.999Z,97.60
2017-09-27T22:17:51.947Z,97.70
2017-09-27T22:20:20.280Z,97.60
2017-09-27T22:22:48.545Z,97.20
2017-09-27T22:25:16.815Z,97.20
2017-09-27T22:27:45.073Z,97.80
2017-09-27T22:30:14.113Z,98.00
2017-09-27T22:32:42.375Z,97.90
2017-09-27T22:35:10.638Z,98.00
2017-09-27T22:37:38.909Z,98.10
2017-09-27T22:40:07.943Z,98.00
2017-09-27T22:42:36.207Z,98.00
2017-09-27T22:45:04.476Z,97.90
2017-09-27T22:47:32.740Z,97.40
2017-09-27T22:50:01.015Z,97.50
2017-09-27T22:52:29.286Z,97.70
2017-09-27T22:54:57.549Z,97.80
2017-09-27T22:57:26.588Z,98.90
2017-09-27T22:59:54.849Z,98.90
2017-09-27T23:02:23.127Z,98.80
2017-09-27T23:04:51.383Z,98.80
2017-09-27T23:07:19.656Z,98.70
2017-09-27T23:09:48.678Z,98.60
2017-09-27T23:12:16.950Z,98.60
2017-09-27T23:14:45.219Z,98.50
2017-09-27T23:17:13.488Z,98.60
2017-09-27T23:19:41.746Z,98.70
2017-09-27T23:22:10.059Z,98.70
2017-09-27T23:24:38.319Z,98.40
2017-09-27T23:27:06.585Z,98.20
2017-09-27T23:29:34.854Z,98.50
2017-09-27T23:32:03.116Z,98.50
2017-09-27T23:34:32.144Z,98.90
2017-09-27T23:37:00.402Z,98.90
2017-09-27T23:39:28.669Z,98.80
2017-09-27T23:41:56.929Z,98.90
2017-09-27T23:44:25.973Z,98.80
2017-09-27T23:46:54.218Z,98.80
2017-09-27T23:49:22.499Z,98.80
2017-09-27T23:51:50.763Z,98.50
2017-09-27T23:54:19.787Z,98.20
2017-09-27T23:56:48.058Z,98.20
2017-09-27T23:59:16.319Z,98.60
